Time;durP1;ratioP1;P1;durP2;ratioP2;P2;SDS_P1;SDS_P2;PMS_P1;PMS_P2;Temp;Humidity;BMP_temperature;BMP_pressure;BME280_temperature;BME280_humidity;BME280_pressure;Samples;Min_cycle;Max_cycle;Signal;HPM_P1;HPM_P2
2023/10/23 00:01:38;;;;;;;0.57;0.57;;;6.00;99.90;;;;;;5021130;28;20514;-73
2023/10/23 00:04:05;;;;;;;0.60;0.60;;;5.90;99.90;;;;;;5035565;28;20051;-73
2023/10/23 00:06:31;;;;;;;0.50;0.50;;;6.00;99.90;;;;;;5028988;28;20025;-72
2023/10/23 00:08:57;;;;;;;0.98;0.95;;;5.90;99.90;;;;;;5017156;28;20556;-72
2023/10/23 00:11:28;;;;;;;0.50;0.50;;;6.00;99.90;;;;;;5014030;28;20457;-73
2023/10/23 00:13:54;;;;;;;0.40;0.40;;;5.90;99.90;;;;;;5010265;28;20086;-73
2023/10/23 00:16:20;;;;;;;0.35;0.35;;;5.90;99.90;;;;;;5031463;28;20053;-71
2023/10/23 00:18:46;;;;;;;0.60;0.60;;;5.90;99.90;;;;;;5029246;28;20041;-72
2023/10/23 00:21:13;;;;;;;0.52;0.52;;;5.90;99.90;;;;;;5025170;28;20045;-72
2023/10/23 00:23:38;;;;;;;0.68;0.68;;;5.90;99.90;;;;;;5025340;28;20064;-73
2023/10/23 00:26:07;;;;;;;0.40;0.40;;;5.90;99.90;;;;;;5000641;28;20493;-72
2023/10/23 00:28:33;;;;;;;0.80;0.80;;;5.90;99.90;;;;;;5024468;28;20060;-73
2023/10/23 00:31:00;;;;;;;0.47;0.47;;;5.90;99.90;;;;;;5009219;28;20040;-72
2023/10/23 00:33:26;;;;;;;0.77;0.77;;;5.90;99.90;;;;;;5034482;28;20045;-73
2023/10/23 00:35:53;;;;;;;0.60;0.60;;;5.90;99.90;;;;;;5026130;28;20052;-72
2023/10/23 00:38:18;;;;;;;0.40;0.40;;;5.80;99.90;;;;;;5027820;28;20535;-73
2023/10/23 00:40:44;;;;;;;0.73;0.73;;;5.80;99.90;;;;;;5027765;28;20036;-73
2023/10/23 00:43:20;;;;;;;0.60;0.60;;;5.80;99.90;;;;;;5024657;28;20049;-73
2023/10/23 00:45:50;;;;;;;0.38;0.38;;;5.80;99.90;;;;;;5021515;28;20171;-73
2023/10/23 00:48:20;;;;;;;0.40;0.40;;;5.80;99.90;;;;;;5030071;28;20104;-74
2023/10/23 00:50:47;;;;;;;0.47;0.47;;;5.80;99.90;;;;;;5037190;28;20041;-75
2023/10/23 00:53:13;;;;;;;0.40;0.40;;;5.70;99.90;;;;;;5025156;28;20048;-72
2023/10/23 00:55:39;;;;;;;0.30;0.30;;;5.80;99.90;;;;;;5011726;28;20049;-72
2023/10/23 00:58:05;;;;;;;0.30;0.30;;;5.70;99.90;;;;;;5007197;28;20037;-72
2023/10/23 01:00:33;;;;;;;0.52;0.52;;;5.70;99.90;;;;;;5017366;28;20483;-74
2023/10/23 01:02:59;;;;;;;0.70;0.70;;;5.70;99.90;;;;;;5021828;28;20049;-72
2023/10/23 01:05:25;;;;;;;0.75;0.75;;;5.70;99.90;;;;;;5024335;28;20038;-72
2023/10/23 01:07:51;;;;;;;0.43;0.43;;;5.70;99.90;;;;;;5019590;28;20041;-73
2023/10/23 01:10:16;;;;;;;0.63;0.45;;;5.70;99.90;;;;;;5027401;28;20045;-74
2023/10/23 01:12:42;;;;;;;0.95;0.88;;;5.70;99.90;;;;;;5026619;28;20251;-72
2023/10/23 01:15:08;;;;;;;0.50;0.50;;;5.70;99.90;;;;;;5021585;28;20037;-72
2023/10/23 01:17:34;;;;;;;0.32;0.32;;;5.70;99.90;;;;;;5032203;28;20041;-73
2023/10/23 01:19:59;;;;;;;0.60;0.60;;;5.60;99.90;;;;;;5030038;28;20043;-72
2023/10/23 01:22:25;;;;;;;0.68;0.68;;;5.70;99.90;;;;;;5034944;28;20056;-73
2023/10/23 01:24:52;;;;;;;0.50;0.50;;;5.60;99.90;;;;;;5024836;28;20029;-73
2023/10/23 01:27:17;;;;;;;0.30;0.30;;;5.60;99.90;;;;;;5033673;28;20304;-73
2023/10/23 01:29:43;;;;;;;0.50;0.50;;;5.60;99.90;;;;;;5039337;28;20207;-73
2023/10/23 01:32:10;;;;;;;0.63;0.40;;;5.60;99.90;;;;;;5026656;28;20775;-73
2023/10/23 01:34:36;;;;;;;0.40;0.40;;;5.60;99.90;;;;;;5027428;28;20209;-73
2023/10/23 01:37:01;;;;;;;0.77;0.77;;;5.60;99.90;;;;;;5026750;28;20053;-73
2023/10/23 01:39:27;;;;;;;0.40;0.40;;;5.50;99.90;;;;;;5032992;28;20044;-73
2023/10/23 01:41:53;;;;;;;0.52;0.52;;;5.60;99.90;;;;;;5028713;28;20094;-72
2023/10/23 01:44:18;;;;;;;1.58;1.20;;;5.50;99.90;;;;;;5044260;28;20468;-73
2023/10/23 01:46:44;;;;;;;0.40;0.40;;;5.50;99.90;;;;;;5032348;28;20037;-73
2023/10/23 01:49:10;;;;;;;0.45;0.45;;;5.60;99.90;;;;;;5019019;28;20534;-73
2023/10/23 01:51:35;;;;;;;0.68;0.60;;;5.50;99.90;;;;;;5026081;28;20083;-73
2023/10/23 01:54:01;;;;;;;0.40;0.40;;;5.40;99.90;;;;;;5016809;28;20493;-73
2023/10/23 01:56:27;;;;;;;0.40;0.40;;;5.50;99.90;;;;;;5021940;28;20365;-72
2023/10/23 01:58:52;;;;;;;0.50;0.50;;;5.40;99.90;;;;;;5034526;28;20573;-72
2023/10/23 02:01:22;;;;;;;0.40;0.40;;;5.40;99.90;;;;;;5044099;28;20049;-73
2023/10/23 02:03:51;;;;;;;0.40;0.40;;;5.30;99.90;;;;;;5022120;28;20437;-73
2023/10/23 02:06:17;;;;;;;0.70;0.50;;;5.40;99.90;;;;;;5028479;28;20852;-72
2023/10/23 02:08:42;;;;;;;0.43;0.43;;;5.30;99.90;;;;;;5031077;28;20041;-71
2023/10/23 02:11:08;;;;;;;0.60;0.60;;;5.30;99.90;;;;;;5010526;28;20038;-73
2023/10/23 02:13:34;;;;;;;0.60;0.60;;;5.30;99.90;;;;;;5015577;28;20040;-73
2023/10/23 02:16:00;;;;;;;0.30;0.30;;;5.30;99.90;;;;;;5008762;28;20117;-73
2023/10/23 02:18:26;;;;;;;0.70;0.70;;;5.20;99.90;;;;;;5008666;28;20538;-73
2023/10/23 02:20:52;;;;;;;0.85;0.60;;;5.20;99.90;;;;;;5023108;28;20231;-73
2023/10/23 02:23:18;;;;;;;0.30;0.30;;;5.20;99.90;;;;;;5027441;28;20052;-73
2023/10/23 02:25:43;;;;;;;0.28;0.28;;;5.20;99.90;;;;;;5029454;28;20048;-73
2023/10/23 02:28:09;;;;;;;0.50;0.50;;;5.10;99.90;;;;;;5032618;28;20072;-73
2023/10/23 02:30:38;;;;;;;0.30;0.30;;;5.10;99.90;;;;;;5026379;28;20055;-73
2023/10/23 02:33:04;;;;;;;0.40;0.40;;;5.10;99.90;;;;;;5018266;28;20045;-72
2023/10/23 02:35:32;;;;;;;0.90;0.90;;;5.10;99.90;;;;;;5023123;28;20041;-71
2023/10/23 02:37:58;;;;;;;0.50;0.50;;;5.10;99.90;;;;;;5024172;28;20045;-72
2023/10/23 02:40:24;;;;;;;0.50;0.50;;;5.10;99.90;;;;;;5014372;28;20045;-73
2023/10/23 02:42:49;;;;;;;0.40;0.40;;;5.00;99.90;;;;;;5028132;28;20108;-73
2023/10/23 02:45:15;;;;;;;0.70;0.70;;;5.00;99.90;;;;;;5017993;28;20049;-73
2023/10/23 02:47:41;;;;;;;0.40;0.40;;;4.90;99.90;;;;;;5017802;28;20045;-73
2023/10/23 02:50:07;;;;;;;0.30;0.30;;;4.90;99.90;;;;;;5023270;28;20120;-72
2023/10/23 02:52:32;;;;;;;1.15;0.60;;;4.90;99.90;;;;;;5028601;28;20041;-72
2023/10/23 02:54:58;;;;;;;0.40;0.40;;;4.90;99.90;;;;;;5013708;28;20946;-72
2023/10/23 02:57:24;;;;;;;0.60;0.60;;;4.90;99.90;;;;;;5023786;28;20034;-74
2023/10/23 02:59:49;;;;;;;0.98;0.82;;;4.90;99.90;;;;;;5024950;28;20033;-72
2023/10/23 03:02:16;;;;;;;0.73;0.50;;;4.90;99.90;;;;;;5024438;28;20057;-74
2023/10/23 03:04:42;;;;;;;0.40;0.40;;;4.90;99.90;;;;;;5050296;28;20045;-72
2023/10/23 03:07:09;;;;;;;0.60;0.60;;;4.90;99.90;;;;;;5030051;28;20036;-72
2023/10/23 03:09:35;;;;;;;0.60;0.60;;;4.90;99.90;;;;;;5025227;28;20041;-73
2023/10/23 03:12:00;;;;;;;0.40;0.40;;;4.80;99.90;;;;;;5024590;28;20043;-72
2023/10/23 03:14:26;;;;;;;0.50;0.50;;;4.80;99.90;;;;;;5015087;28;20042;-73
2023/10/23 03:16:51;;;;;;;2.38;0.88;;;4.80;99.90;;;;;;5029956;28;20494;-72
2023/10/23 03:19:18;;;;;;;0.50;0.50;;;4.80;99.90;;;;;;5010431;28;20051;-72
2023/10/23 03:21:44;;;;;;;0.40;0.40;;;4.80;99.90;;;;;;5017979;28;20048;-72
2023/10/23 03:24:10;;;;;;;0.35;0.35;;;4.80;99.90;;;;;;5013890;28;20049;-75
2023/10/23 03:26:35;;;;;;;0.32;0.32;;;4.80;99.90;;;;;;5026173;28;20041;-73
2023/10/23 03:29:01;;;;;;;0.40;0.40;;;4.80;99.90;;;;;;5029122;28;20045;-72
2023/10/23 03:31:27;;;;;;;0.43;0.43;;;4.80;99.90;;;;;;5025623;28;20106;-73
2023/10/23 03:33:52;;;;;;;0.40;0.40;;;4.80;99.90;;;;;;5021248;28;20080;-72
2023/10/23 03:36:18;;;;;;;0.40;0.40;;;4.80;99.90;;;;;;5019681;28;20064;-72
2023/10/23 03:38:44;;;;;;;0.40;0.40;;;4.80;99.90;;;;;;5014386;28;20219;-72
2023/10/23 03:41:09;;;;;;;0.30;0.30;;;4.80;99.90;;;;;;5032070;28;20859;-72
2023/10/23 03:43:35;;;;;;;0.90;0.90;;;4.80;99.90;;;;;;5014214;28;20533;-75
2023/10/23 03:46:03;;;;;;;0.40;0.40;;;4.80;99.90;;;;;;5028384;28;20043;-73
2023/10/23 03:48:30;;;;;;;0.50;0.50;;;4.80;99.90;;;;;;5039862;28;20033;-72
2023/10/23 03:50:59;;;;;;;0.60;0.60;;;4.80;99.90;;;;;;5017562;28;20041;-72
2023/10/23 03:53:25;;;;;;;0.30;0.30;;;4.80;99.90;;;;;;5027671;28;20041;-73
2023/10/23 03:55:50;;;;;;;0.88;0.88;;;4.80;99.90;;;;;;5019743;28;20517;-72
2023/10/23 03:58:16;;;;;;;0.30;0.30;;;4.80;99.90;;;;;;5026704;28;20075;-73
2023/10/23 04:00:42;;;;;;;0.70;0.70;;;4.80;99.90;;;;;;5023607;28;20052;-74
2023/10/23 04:03:07;;;;;;;0.30;0.30;;;4.80;99.90;;;;;;5027916;28;20116;-74
2023/10/23 04:05:42;;;;;;;0.52;0.52;;;4.80;99.90;;;;;;5012146;28;20479;-74
2023/10/23 04:08:07;;;;;;;0.95;0.88;;;4.80;99.90;;;;;;5021941;28;20379;-73
2023/10/23 04:10:33;;;;;;;0.63;0.63;;;4.80;99.90;;;;;;5006270;28;20083;-74
2023/10/23 04:12:59;;;;;;;1.55;1.27;;;4.80;99.90;;;;;;5015872;28;20476;-74
2023/10/23 04:15:25;;;;;;;0.32;0.32;;;4.80;99.90;;;;;;5023646;28;20042;-74
2023/10/23 04:17:50;;;;;;;1.77;0.63;;;4.80;99.90;;;;;;5008133;28;20498;-75
2023/10/23 04:20:16;;;;;;;0.40;0.40;;;4.80;99.90;;;;;;5019145;28;20690;-75
2023/10/23 04:22:42;;;;;;;0.40;0.40;;;4.80;99.90;;;;;;5026030;28;20048;-74
2023/10/23 04:25:09;;;;;;;0.40;0.40;;;4.80;99.90;;;;;;5025034;28;20038;-74
2023/10/23 04:27:35;;;;;;;1.20;0.90;;;4.80;99.90;;;;;;5019364;28;20362;-73
2023/10/23 04:30:01;;;;;;;0.50;0.50;;;4.80;99.90;;;;;;5024482;28;20068;-74
2023/10/23 04:32:27;;;;;;;0.45;0.45;;;4.70;99.90;;;;;;5017247;28;20044;-72
2023/10/23 04:34:53;;;;;;;0.50;0.50;;;4.70;99.90;;;;;;5017393;28;20124;-74
2023/10/23 04:37:19;;;;;;;0.60;0.60;;;4.70;99.90;;;;;;5024025;28;20171;-74
2023/10/23 04:39:44;;;;;;;0.63;0.63;;;4.70;99.90;;;;;;5044032;28;20132;-74
2023/10/23 04:42:10;;;;;;;0.50;0.50;;;4.80;99.90;;;;;;5021434;28;20050;-74
2023/10/23 04:44:36;;;;;;;0.40;0.40;;;4.80;99.90;;;;;;5013411;28;20084;-74
2023/10/23 04:47:02;;;;;;;0.73;0.73;;;4.80;99.90;;;;;;5023592;28;20056;-73
2023/10/23 04:49:28;;;;;;;0.40;0.40;;;4.80;99.90;;;;;;5002953;28;20049;-73
2023/10/23 04:51:54;;;;;;;1.05;0.95;;;4.70;99.90;;;;;;5001734;28;20078;-74
2023/10/23 04:54:19;;;;;;;0.50;0.50;;;4.80;99.90;;;;;;5016492;28;20045;-74
2023/10/23 04:56:46;;;;;;;0.40;0.40;;;4.70;99.90;;;;;;5018435;28;20038;-73
2023/10/23 04:59:11;;;;;;;0.30;0.30;;;4.70;99.90;;;;;;5020820;28;20045;-73
2023/10/23 05:01:37;;;;;;;0.80;0.80;;;4.70;99.90;;;;;;5016061;28;20054;-72
2023/10/23 05:04:03;;;;;;;0.40;0.40;;;4.70;99.90;;;;;;5005289;28;20077;-73
2023/10/23 05:06:29;;;;;;;0.60;0.60;;;4.70;99.90;;;;;;5015388;28;20037;-73
2023/10/23 05:08:55;;;;;;;0.30;0.30;;;4.70;99.90;;;;;;5015516;28;20037;-73
2023/10/23 05:11:21;;;;;;;1.40;0.65;;;4.70;99.90;;;;;;5017443;28;20052;-73
2023/10/23 05:13:47;;;;;;;2.05;1.00;;;4.70;99.90;;;;;;5019056;28;20034;-73
2023/10/23 05:16:13;;;;;;;0.45;0.45;;;4.70;99.90;;;;;;5016922;28;20132;-73
2023/10/23 05:18:39;;;;;;;0.40;0.40;;;4.70;99.90;;;;;;5016277;28;20049;-73
2023/10/23 05:21:12;;;;;;;0.60;0.60;;;4.70;99.90;;;;;;5014801;28;20124;-73
2023/10/23 05:23:39;;;;;;;0.47;0.47;;;4.70;99.90;;;;;;5015656;28;20056;-74
2023/10/23 05:26:05;;;;;;;0.35;0.35;;;4.70;99.90;;;;;;5024479;28;20075;-73
2023/10/23 05:28:31;;;;;;;0.50;0.50;;;4.70;99.90;;;;;;5015600;28;20045;-73
2023/10/23 05:30:57;;;;;;;0.40;0.40;;;4.60;99.90;;;;;;5019409;28;20121;-74
2023/10/23 05:33:23;;;;;;;0.52;0.52;;;4.70;99.90;;;;;;5016625;28;20156;-75
2023/10/23 05:35:49;;;;;;;0.40;0.40;;;4.60;99.90;;;;;;5021795;28;20460;-74
2023/10/23 05:38:15;;;;;;;0.40;0.40;;;4.60;99.90;;;;;;5002109;28;20049;-73
2023/10/23 05:40:40;;;;;;;0.73;0.73;;;4.60;99.90;;;;;;5027447;28;20037;-73
2023/10/23 05:43:06;;;;;;;0.45;0.45;;;4.60;99.90;;;;;;5023266;28;20533;-73
2023/10/23 05:45:32;;;;;;;0.40;0.40;;;4.60;99.90;;;;;;5005783;28;20048;-73
2023/10/23 05:47:57;;;;;;;0.43;0.43;;;4.50;99.90;;;;;;4997567;28;20089;-74
2023/10/23 05:50:23;;;;;;;0.50;0.50;;;4.60;99.90;;;;;;5022992;28;20045;-73
2023/10/23 05:52:49;;;;;;;0.40;0.40;;;4.50;99.90;;;;;;5021688;28;20499;-74
2023/10/23 05:55:14;;;;;;;0.50;0.50;;;4.50;99.90;;;;;;5018152;28;20041;-73
2023/10/23 05:57:40;;;;;;;0.50;0.50;;;4.50;99.90;;;;;;5001099;28;20103;-73
2023/10/23 06:00:08;;;;;;;0.40;0.40;;;4.50;99.90;;;;;;5024716;28;20060;-73
2023/10/23 06:02:34;;;;;;;0.40;0.40;;;4.50;99.90;;;;;;5008882;28;20434;-75
2023/10/23 06:05:00;;;;;;;0.70;0.70;;;4.50;99.90;;;;;;5017562;28;20103;-73
2023/10/23 06:07:26;;;;;;;0.80;0.80;;;4.40;99.90;;;;;;5009618;28;20029;-73
2023/10/23 06:09:51;;;;;;;0.52;0.52;;;4.50;99.90;;;;;;5003240;28;20033;-72
2023/10/23 06:12:17;;;;;;;0.50;0.50;;;4.40;99.90;;;;;;5027000;28;20685;-74
2023/10/23 06:14:43;;;;;;;1.15;1.10;;;4.40;99.90;;;;;;5032907;28;20490;-73
2023/10/23 06:17:09;;;;;;;0.30;0.30;;;4.40;99.90;;;;;;5015884;28;20049;-72
2023/10/23 06:19:36;;;;;;;0.50;0.50;;;4.40;99.90;;;;;;5020845;28;20098;-72
2023/10/23 06:22:02;;;;;;;0.40;0.40;;;4.40;99.90;;;;;;5028305;28;20878;-72
2023/10/23 06:24:28;;;;;;;0.65;0.63;;;4.40;99.90;;;;;;5019427;28;20033;-71
2023/10/23 06:26:53;;;;;;;0.50;0.50;;;4.40;99.90;;;;;;5022595;28;20130;-71
2023/10/23 06:29:19;;;;;;;0.30;0.30;;;4.40;99.90;;;;;;5027793;28;20052;-71
2023/10/23 06:31:45;;;;;;;0.57;0.57;;;4.40;99.90;;;;;;5027905;28;20395;-72
2023/10/23 06:34:10;;;;;;;0.50;0.50;;;4.40;99.90;;;;;;5032476;28;20541;-71
2023/10/23 06:36:40;;;;;;;0.30;0.30;;;4.40;99.90;;;;;;5023275;28;20135;-71
2023/10/23 06:39:06;;;;;;;0.30;0.30;;;4.40;99.90;;;;;;5029844;28;20403;-71
2023/10/23 06:41:32;;;;;;;0.40;0.40;;;4.30;99.90;;;;;;5024470;28;20041;-71
2023/10/23 06:43:58;;;;;;;0.60;0.60;;;4.30;99.90;;;;;;5023398;28;20045;-71
2023/10/23 06:46:23;;;;;;;0.35;0.35;;;4.40;99.90;;;;;;5044048;28;20041;-71
2023/10/23 06:48:49;;;;;;;0.40;0.40;;;4.40;99.90;;;;;;5015344;28;20068;-71
2023/10/23 06:51:14;;;;;;;0.57;0.57;;;4.40;99.90;;;;;;5029362;28;20037;-71
2023/10/23 06:53:40;;;;;;;0.45;0.45;;;4.40;99.90;;;;;;5023195;28;20168;-71
2023/10/23 06:56:08;;;;;;;0.73;0.73;;;4.40;99.90;;;;;;5004119;28;20126;-71
2023/10/23 06:58:34;;;;;;;0.80;0.80;;;4.50;99.90;;;;;;5026384;28;20067;-71
2023/10/23 07:01:09;;;;;;;0.43;0.43;;;4.50;99.90;;;;;;5007486;28;20815;-71
2023/10/23 07:03:36;;;;;;;0.85;0.85;;;4.50;99.90;;;;;;5034745;28;20045;-71
2023/10/23 07:06:08;;;;;;;1.05;0.90;;;4.50;99.90;;;;;;5036358;28;20056;-72
2023/10/23 07:08:34;;;;;;;0.50;0.50;;;4.50;99.90;;;;;;5034688;28;20044;-72
2023/10/23 07:11:00;;;;;;;1.85;1.30;;;4.50;99.90;;;;;;5017119;28;20053;-71
2023/10/23 07:13:27;;;;;;;1.15;0.65;;;4.50;99.90;;;;;;5008823;28;20041;-71
2023/10/23 07:15:53;;;;;;;0.82;0.82;;;4.50;99.90;;;;;;5017870;28;20490;-71
2023/10/23 07:18:18;;;;;;;1.20;0.57;;;4.50;99.90;;;;;;5034460;28;20048;-72
2023/10/23 07:20:59;;;;;;;0.40;0.40;;;4.50;99.90;;;;;;5027018;28;20033;-72
2023/10/23 07:23:26;;;;;;;0.75;0.75;;;4.50;99.90;;;;;;5018122;28;20155;-72
2023/10/23 07:26:03;;;;;;;2.45;0.85;;;4.50;99.90;;;;;;5018446;28;20537;-71
2023/10/23 07:28:29;;;;;;;0.60;0.60;;;4.50;99.90;;;;;;5017387;28;20118;-72
2023/10/23 07:30:55;;;;;;;0.50;0.50;;;4.60;99.90;;;;;;5013299;28;21320;-72
2023/10/23 07:33:20;;;;;;;0.40;0.40;;;4.60;99.90;;;;;;5031917;28;20037;-71
2023/10/23 07:35:46;;;;;;;0.45;0.45;;;4.60;99.90;;;;;;4998235;28;20527;-70
2023/10/23 07:38:12;;;;;;;0.40;0.40;;;4.60;99.90;;;;;;5027658;28;20406;-72
2023/10/23 07:40:43;;;;;;;0.50;0.50;;;4.70;99.90;;;;;;5020029;28;20053;-72
2023/10/23 07:43:10;;;;;;;0.70;0.70;;;4.70;99.90;;;;;;5010417;28;20491;-71
2023/10/23 07:45:39;;;;;;;0.50;0.50;;;4.80;99.90;;;;;;5021216;28;20059;-72
2023/10/23 07:48:05;;;;;;;0.38;0.38;;;4.80;99.90;;;;;;5019958;28;20041;-71
2023/10/23 07:50:35;;;;;;;0.57;0.57;;;4.80;99.90;;;;;;5017796;28;20045;-72
2023/10/23 07:53:01;;;;;;;0.30;0.30;;;4.80;99.90;;;;;;5013349;28;20310;-73
2023/10/23 07:55:27;;;;;;;0.60;0.60;;;5.00;99.90;;;;;;5019523;28;20037;-71
2023/10/23 07:57:52;;;;;;;0.40;0.40;;;5.10;99.90;;;;;;5027727;28;20089;-72
2023/10/23 08:00:18;;;;;;;0.50;0.50;;;5.20;99.90;;;;;;5005194;28;20054;-72
2023/10/23 08:02:44;;;;;;;0.75;0.75;;;5.40;99.90;;;;;;5015672;28;20067;-72
2023/10/23 08:05:09;;;;;;;0.50;0.50;;;5.60;99.90;;;;;;5025822;28;20039;-72
2023/10/23 08:07:35;;;;;;;0.50;0.50;;;5.70;99.90;;;;;;5019295;28;20044;-72
2023/10/23 08:10:01;;;;;;;0.70;0.70;;;5.70;99.90;;;;;;5018784;28;20038;-71
2023/10/23 08:12:26;;;;;;;0.45;0.45;;;5.90;99.90;;;;;;5033975;28;20415;-71
2023/10/23 08:14:52;;;;;;;0.73;0.73;;;5.90;99.90;;;;;;5023638;28;20041;-71
2023/10/23 08:17:18;;;;;;;0.50;0.50;;;6.00;99.90;;;;;;5025597;28;20494;-71
2023/10/23 08:19:43;;;;;;;2.90;1.38;;;6.20;99.90;;;;;;5012939;28;20106;-72
2023/10/23 08:22:09;;;;;;;0.82;0.82;;;6.20;99.90;;;;;;5021324;28;20487;-72
2023/10/23 08:24:34;;;;;;;1.38;0.98;;;6.40;99.90;;;;;;5023210;28;20069;-72
2023/10/23 08:27:00;;;;;;;1.42;1.23;;;6.40;99.90;;;;;;5025406;28;20561;-71
2023/10/23 08:29:28;;;;;;;1.17;0.82;;;6.50;99.90;;;;;;5029893;28;20483;-72
2023/10/23 08:31:53;;;;;;;1.10;1.10;;;6.60;99.90;;;;;;5027513;28;20037;-72
2023/10/23 08:34:21;;;;;;;1.33;0.75;;;6.70;99.90;;;;;;5031443;28;20119;-71
2023/10/23 08:36:49;;;;;;;3.10;1.48;;;6.70;99.90;;;;;;5018399;28;20506;-72
2023/10/23 08:39:15;;;;;;;0.40;0.40;;;6.80;99.90;;;;;;5024588;28;20053;-71
2023/10/23 08:41:41;;;;;;;1.13;1.13;;;6.90;99.90;;;;;;5009759;28;20033;-72
2023/10/23 08:44:07;;;;;;;3.65;0.93;;;7.00;99.90;;;;;;5014378;28;20128;-71
2023/10/23 08:46:34;;;;;;;3.85;1.17;;;7.10;99.90;;;;;;5033231;28;20037;-72
2023/10/23 08:49:01;;;;;;;0.82;0.70;;;7.20;99.90;;;;;;5029336;28;20370;-73
2023/10/23 08:51:27;;;;;;;0.80;0.80;;;7.20;99.90;;;;;;5027526;28;20033;-72
2023/10/23 08:54:06;;;;;;;0.77;0.77;;;7.30;99.90;;;;;;5023839;28;20160;-72
2023/10/23 08:56:37;;;;;;;0.50;0.50;;;7.30;99.90;;;;;;5027940;28;20510;-71
2023/10/23 08:59:03;;;;;;;0.65;0.65;;;7.50;99.90;;;;;;5008469;28;20383;-72
2023/10/23 09:01:29;;;;;;;0.52;0.52;;;7.60;99.90;;;;;;5024129;28;20359;-72
2023/10/23 09:03:56;;;;;;;0.60;0.60;;;7.70;99.90;;;;;;5025185;28;20380;-72
2023/10/23 09:06:22;;;;;;;0.90;0.90;;;7.80;99.90;;;;;;5021723;28;20033;-71
2023/10/23 09:08:48;;;;;;;1.05;1.00;;;7.90;99.90;;;;;;5028639;28;20129;-72
2023/10/23 09:11:14;;;;;;;0.80;0.80;;;8.00;99.90;;;;;;5025681;28;20079;-72
2023/10/23 09:13:41;;;;;;;1.77;1.60;;;8.10;99.90;;;;;;5031916;28;20049;-71
2023/10/23 09:16:09;;;;;;;2.30;1.02;;;8.20;99.90;;;;;;5025361;28;20048;-72
2023/10/23 09:18:46;;;;;;;1.08;1.08;;;8.40;99.90;;;;;;5027323;28;20041;-72
2023/10/23 09:21:12;;;;;;;1.70;1.60;;;8.50;99.90;;;;;;5030565;28;20045;-72
2023/10/23 09:23:53;;;;;;;1.67;0.88;;;8.60;99.90;;;;;;5016371;28;20566;-71
2023/10/23 09:26:20;;;;;;;1.48;1.38;;;8.70;99.90;;;;;;5043529;28;20463;-72
2023/10/23 09:28:47;;;;;;;2.05;1.67;;;8.70;99.90;;;;;;5028101;28;20065;-72
2023/10/23 09:31:13;;;;;;;4.47;1.40;;;8.80;99.90;;;;;;5032132;28;20041;-72
2023/10/23 09:33:39;;;;;;;0.80;0.80;;;8.90;99.90;;;;;;5030558;28;20117;-72
2023/10/23 09:36:08;;;;;;;1.77;1.58;;;8.90;99.90;;;;;;5016768;28;20494;-72
2023/10/23 09:38:34;;;;;;;1.77;1.65;;;8.90;99.90;;;;;;5025149;28;20120;-72
2023/10/23 09:41:00;;;;;;;1.02;1.02;;;9.00;99.90;;;;;;5030896;28;20334;-72
2023/10/23 09:43:26;;;;;;;0.90;0.90;;;9.10;99.90;;;;;;5018678;28;20489;-72
2023/10/23 09:45:53;;;;;;;0.93;0.93;;;9.20;99.90;;;;;;5000777;28;20044;-72
2023/10/23 09:48:23;;;;;;;1.13;1.13;;;9.20;99.90;;;;;;5017673;28;20120;-72
2023/10/23 09:50:49;;;;;;;1.38;1.05;;;9.30;99.90;;;;;;5019893;28;20242;-72
2023/10/23 09:53:17;;;;;;;1.10;0.85;;;9.30;99.90;;;;;;5019404;28;20419;-73
2023/10/23 09:55:45;;;;;;;0.63;0.60;;;9.40;99.90;;;;;;5027336;28;20497;-72
2023/10/23 09:58:18;;;;;;;1.08;0.98;;;9.40;99.90;;;;;;5022945;28;20044;-72
2023/10/23 10:00:48;;;;;;;0.80;0.80;;;9.50;99.90;;;;;;5024291;28;20407;-72
2023/10/23 10:03:18;;;;;;;1.63;1.55;;;9.50;99.90;;;;;;5026942;28;20041;-72
2023/10/23 10:06:00;;;;;;;0.98;0.93;;;9.60;99.90;;;;;;5008706;28;20033;-71
2023/10/23 10:08:33;;;;;;;1.33;0.88;;;9.70;99.90;;;;;;5017420;28;20072;-73
2023/10/23 10:11:00;;;;;;;2.35;1.98;;;9.70;99.90;;;;;;5023684;28;20112;-74
2023/10/23 10:13:28;;;;;;;1.95;1.85;;;9.70;99.90;;;;;;5039134;28;20502;-75
2023/10/23 10:15:54;;;;;;;;;;;9.70;99.90;;;;;;5021571;28;20556;-72
2023/10/23 10:18:21;;;;;;;1.00;1.00;;;9.60;99.90;;;;;;5019768;28;19921;-73
2023/10/23 10:20:53;;;;;;;1.42;1.30;;;9.70;99.90;;;;;;5006342;28;20049;-73
2023/10/23 10:23:19;;;;;;;1.05;0.95;;;9.70;99.90;;;;;;5023965;28;20494;-73
2023/10/23 10:25:46;;;;;;;2.20;2.10;;;9.80;99.90;;;;;;5012004;28;20415;-73
2023/10/23 10:28:13;;;;;;;1.63;1.20;;;9.80;99.90;;;;;;5017044;28;20098;-72
2023/10/23 10:30:47;;;;;;;2.15;1.23;;;9.90;99.90;;;;;;5018797;28;20041;-73
2023/10/23 10:33:19;;;;;;;1.45;1.33;;;9.90;99.90;;;;;;5022358;28;20044;-73
2023/10/23 10:36:25;;;;;;;1.83;1.45;;;9.90;99.90;;;;;;5024971;28;20040;-73
2023/10/23 10:38:51;;;;;;;2.25;1.60;;;10.00;99.90;;;;;;4967450;28;20089;-74
2023/10/23 10:41:18;;;;;;;1.40;0.90;;;9.90;99.90;;;;;;5013398;28;20091;-74
2023/10/23 10:43:51;;;;;;;2.42;2.13;;;10.00;99.90;;;;;;5026149;28;20048;-73
2023/10/23 10:46:25;;;;;;;1.25;1.15;;;10.00;99.90;;;;;;5019325;28;20061;-73
2023/10/23 10:48:52;;;;;;;0.90;0.90;;;10.00;99.90;;;;;;5026332;28;20068;-73
2023/10/23 10:51:21;;;;;;;0.68;0.68;;;10.00;99.90;;;;;;5016947;28;20767;-72
2023/10/23 10:53:48;;;;;;;1.65;1.50;;;10.10;99.90;;;;;;5029331;28;20037;-73
2023/10/23 10:56:14;;;;;;;2.00;1.35;;;10.10;99.90;;;;;;5015780;28;20157;-72
2023/10/23 10:58:43;;;;;;;0.82;0.80;;;10.00;99.90;;;;;;5026741;28;20123;-72
2023/10/23 11:01:10;;;;;;;0.60;0.60;;;10.10;99.90;;;;;;5015726;28;20135;-72
2023/10/23 11:03:41;;;;;;;1.13;1.10;;;10.10;99.90;;;;;;5035312;28;20087;-73
2023/10/23 11:06:08;;;;;;;0.40;0.40;;;10.10;99.90;;;;;;5015711;28;20462;-72
2023/10/23 11:08:34;;;;;;;0.73;0.73;;;10.20;99.90;;;;;;5024437;28;20084;-72
2023/10/23 11:11:06;;;;;;;0.55;0.55;;;10.20;99.90;;;;;;5044284;28;20033;-72
2023/10/23 11:13:32;;;;;;;1.08;0.90;;;10.20;99.90;;;;;;5023148;28;20660;-73
2023/10/23 11:15:59;;;;;;;1.55;1.48;;;10.30;99.90;;;;;;5028531;28;20087;-73
2023/10/23 11:18:25;;;;;;;0.77;0.75;;;10.30;99.90;;;;;;5024648;28;20128;-71
2023/10/23 11:20:57;;;;;;;1.42;1.33;;;10.30;99.90;;;;;;5027388;28;20049;-72
2023/10/23 11:23:23;;;;;;;1.73;1.63;;;10.40;99.90;;;;;;5008700;28;20064;-72
2023/10/23 11:25:50;;;;;;;1.30;1.23;;;10.30;99.90;;;;;;5015653;28;20074;-72
2023/10/23 11:28:18;;;;;;;1.65;0.68;;;10.30;99.90;;;;;;5019860;28;20125;-72
2023/10/23 11:30:46;;;;;;;1.00;0.77;;;10.30;99.90;;;;;;5018730;28;20044;-72
2023/10/23 11:33:12;;;;;;;1.03;1.03;;;10.40;99.90;;;;;;5012049;28;20406;-72
2023/10/23 11:35:40;;;;;;;2.35;2.15;;;10.40;99.90;;;;;;5022976;28;20342;-72
2023/10/23 11:38:12;;;;;;;3.78;1.38;;;10.40;99.90;;;;;;5024357;28;20402;-71
2023/10/23 11:40:37;;;;;;;0.80;0.75;;;10.40;99.90;;;;;;5017214;28;20037;-74
2023/10/23 11:43:03;;;;;;;0.88;0.73;;;10.40;99.90;;;;;;5004632;28;20858;-73
2023/10/23 11:45:29;;;;;;;0.38;0.38;;;10.50;99.90;;;;;;5012053;28;20414;-73
2023/10/23 11:47:55;;;;;;;0.85;0.85;;;10.40;99.90;;;;;;5013961;28;20075;-73
2023/10/23 11:50:21;;;;;;;0.98;0.98;;;10.40;99.90;;;;;;5015689;28;20052;-73
2023/10/23 11:52:48;;;;;;;1.73;1.45;;;10.40;99.90;;;;;;5024819;28;20079;-73
2023/10/23 11:55:15;;;;;;;1.90;1.80;;;10.40;99.90;;;;;;5018799;28;20425;-73
2023/10/23 11:57:44;;;;;;;4.28;1.92;;;10.40;99.90;;;;;;5023890;28;20033;-73
2023/10/23 12:00:15;;;;;;;0.80;0.80;;;10.40;99.90;;;;;;5025764;28;20406;-74
2023/10/23 12:02:42;;;;;;;0.80;0.80;;;10.40;99.90;;;;;;5013905;28;20036;-74
2023/10/23 12:05:12;;;;;;;0.85;0.85;;;10.40;99.90;;;;;;5032075;28;20041;-73
2023/10/23 12:07:53;;;;;;;0.73;0.73;;;10.50;99.90;;;;;;5024058;28;20127;-73
2023/10/23 12:10:20;;;;;;;0.68;0.68;;;10.50;99.90;;;;;;5006006;28;20398;-74
2023/10/23 12:12:47;;;;;;;1.38;1.38;;;10.60;99.90;;;;;;5025207;28;20084;-73
2023/10/23 12:15:15;;;;;;;1.33;1.23;;;10.60;99.90;;;;;;5032967;28;20402;-74
2023/10/23 12:17:41;;;;;;;1.92;1.83;;;10.60;99.90;;;;;;5033651;28;20041;-73
2023/10/23 12:20:10;;;;;;;1.58;0.98;;;10.60;99.90;;;;;;5032549;28;20072;-74
2023/10/23 12:22:42;;;;;;;;;;;10.60;99.90;;;;;;5029101;28;20038;-73
2023/10/23 12:25:09;;;;;;;1.67;1.58;;;10.60;99.90;;;;;;5029900;28;20074;-74
2023/10/23 12:27:36;;;;;;;1.13;1.05;;;10.60;99.90;;;;;;5009072;28;20108;-74
2023/10/23 12:30:04;;;;;;;1.60;1.50;;;10.60;99.90;;;;;;5011773;28;20080;-73
2023/10/23 12:32:33;;;;;;;;;;;10.60;99.90;;;;;;5027728;28;20581;-73
2023/10/23 12:34:59;;;;;;;2.25;2.08;;;10.60;99.90;;;;;;5031302;28;19944;-72
2023/10/23 12:37:32;;;;;;;6.22;2.78;;;10.60;99.90;;;;;;5029237;28;20045;-73
2023/10/23 12:40:00;;;;;;;10.60;4.00;;;10.60;99.90;;;;;;5029512;28;20045;-74
2023/10/23 12:42:28;;;;;;;2.58;2.38;;;10.50;99.90;;;;;;5016875;28;20487;-72
2023/10/23 12:44:55;;;;;;;3.35;3.10;;;10.50;99.90;;;;;;5026817;28;20079;-72
2023/10/23 12:47:22;;;;;;;4.00;2.67;;;10.50;99.90;;;;;;5030002;28;20483;-72
2023/10/23 12:49:47;;;;;;;1.83;1.73;;;10.50;99.90;;;;;;5022154;28;20041;-73
2023/10/23 12:52:14;;;;;;;1.27;1.23;;;10.60;99.90;;;;;;5024475;28;20055;-73
2023/10/23 12:54:40;;;;;;;2.20;2.00;;;10.60;99.90;;;;;;5038658;28;20052;-73